sensor_id;sensor_type;location;lat;lon;timestamp;P1;durP1;ratioP1;P2;durP2;ratioP2
5646;SDS011;2845;48.626;9.362;2023-12-07T00:01:10;6.50;;;3.35;;
5646;SDS011;2845;48.626;9.362;2023-12-07T00:03:44;7.63;;;3.63;;
5646;SDS011;2845;48.626;9.362;2023-12-07T00:06:18;7.20;;;3.40;;
5646;SDS011;2845;48.626;9.362;2023-12-07T00:08:53;7.53;;;3.35;;
5646;SDS011;2845;48.626;9.362;2023-12-07T00:11:28;7.53;;;3.40;;
5646;SDS011;2845;48.626;9.362;2023-12-07T00:14:02;5.95;;;2.92;;
5646;SDS011;2845;48.626;9.362;2023-12-07T00:16:36;7.88;;;3.40;;
5646;SDS011;2845;48.626;9.362;2023-12-07T00:19:10;8.63;;;3.20;;
5646;SDS011;2845;48.626;9.362;2023-12-07T00:21:45;6.20;;;2.90;;
5646;SDS011;2845;48.626;9.362;2023-12-07T00:24:19;8.00;;;3.57;;
5646;SDS011;2845;48.626;9.362;2023-12-07T00:26:54;8.05;;;3.55;;
5646;SDS011;2845;48.626;9.362;2023-12-07T00:29:28;6.30;;;3.33;;
5646;SDS011;2845;48.626;9.362;2023-12-07T00:32:03;8.27;;;3.43;;
5646;SDS011;2845;48.626;9.362;2023-12-07T00:34:38;7.27;;;3.30;;
5646;SDS011;2845;48.626;9.362;2023-12-07T00:37:12;6.88;;;3.58;;
5646;SDS011;2845;48.626;9.362;2023-12-07T00:39:47;6.50;;;3.17;;
5646;SDS011;2845;48.626;9.362;2023-12-07T00:42:22;5.90;;;2.88;;
5646;SDS011;2845;48.626;9.362;2023-12-07T00:44:57;6.97;;;3.40;;
5646;SDS011;2845;48.626;9.362;2023-12-07T00:47:31;8.80;;;3.42;;
5646;SDS011;2845;48.626;9.362;2023-12-07T00:50:05;7.82;;;3.45;;
5646;SDS011;2845;48.626;9.362;2023-12-07T00:52:40;6.83;;;3.13;;
5646;SDS011;2845;48.626;9.362;2023-12-07T00:55:15;8.48;;;3.75;;
5646;SDS011;2845;48.626;9.362;2023-12-07T00:57:50;7.00;;;3.00;;
5646;SDS011;2845;48.626;9.362;2023-12-07T01:00:24;7.22;;;3.28;;
5646;SDS011;2845;48.626;9.362;2023-12-07T01:02:58;6.97;;;3.38;;
5646;SDS011;2845;48.626;9.362;2023-12-07T01:05:33;7.40;;;3.47;;
5646;SDS011;2845;48.626;9.362;2023-12-07T01:08:07;5.28;;;2.92;;
5646;SDS011;2845;48.626;9.362;2023-12-07T01:10:41;9.32;;;4.13;;
5646;SDS011;2845;48.626;9.362;2023-12-07T01:13:16;8.73;;;3.80;;
5646;SDS011;2845;48.626;9.362;2023-12-07T01:15:51;7.87;;;3.83;;
5646;SDS011;2845;48.626;9.362;2023-12-07T01:18:25;6.30;;;2.67;;
5646;SDS011;2845;48.626;9.362;2023-12-07T01:20:59;8.40;;;3.43;;
5646;SDS011;2845;48.626;9.362;2023-12-07T01:23:33;6.53;;;3.17;;
5646;SDS011;2845;48.626;9.362;2023-12-07T01:26:07;10.03;;;3.70;;
5646;SDS011;2845;48.626;9.362;2023-12-07T01:28:43;7.35;;;3.13;;
5646;SDS011;2845;48.626;9.362;2023-12-07T01:31:17;7.73;;;3.37;;
5646;SDS011;2845;48.626;9.362;2023-12-07T01:33:52;8.43;;;3.33;;
5646;SDS011;2845;48.626;9.362;2023-12-07T01:36:26;9.75;;;4.22;;
5646;SDS011;2845;48.626;9.362;2023-12-07T01:39:00;9.10;;;3.43;;
5646;SDS011;2845;48.626;9.362;2023-12-07T01:41:35;8.23;;;3.83;;
5646;SDS011;2845;48.626;9.362;2023-12-07T01:44:10;7.30;;;3.63;;
5646;SDS011;2845;48.626;9.362;2023-12-07T01:46:45;9.33;;;4.17;;
5646;SDS011;2845;48.626;9.362;2023-12-07T01:49:19;7.10;;;3.73;;
5646;SDS011;2845;48.626;9.362;2023-12-07T01:51:54;7.00;;;3.80;;
5646;SDS011;2845;48.626;9.362;2023-12-07T01:54:29;7.27;;;3.37;;
5646;SDS011;2845;48.626;9.362;2023-12-07T01:57:04;8.45;;;3.90;;
5646;SDS011;2845;48.626;9.362;2023-12-07T01:59:40;7.30;;;3.30;;
5646;SDS011;2845;48.626;9.362;2023-12-07T02:02:14;8.07;;;3.33;;
5646;SDS011;2845;48.626;9.362;2023-12-07T02:04:48;6.43;;;3.30;;
5646;SDS011;2845;48.626;9.362;2023-12-07T02:07:23;7.40;;;3.50;;
5646;SDS011;2845;48.626;9.362;2023-12-07T02:09:57;7.83;;;3.57;;
5646;SDS011;2845;48.626;9.362;2023-12-07T02:12:31;8.40;;;3.47;;
5646;SDS011;2845;48.626;9.362;2023-12-07T02:15:08;7.40;;;3.77;;
5646;SDS011;2845;48.626;9.362;2023-12-07T02:17:46;6.10;;;3.30;;
5646;SDS011;2845;48.626;9.362;2023-12-07T02:20:28;7.33;;;3.47;;
5646;SDS011;2845;48.626;9.362;2023-12-07T02:23:08;6.77;;;3.77;;
5646;SDS011;2845;48.626;9.362;2023-12-07T02:25:54;7.07;;;3.70;;
5646;SDS011;2845;48.626;9.362;2023-12-07T02:28:37;9.23;;;3.90;;
5646;SDS011;2845;48.626;9.362;2023-12-07T02:31:11;7.60;;;3.43;;
5646;SDS011;2845;48.626;9.362;2023-12-07T02:33:45;7.73;;;3.63;;
5646;SDS011;2845;48.626;9.362;2023-12-07T02:36:20;9.83;;;3.63;;
5646;SDS011;2845;48.626;9.362;2023-12-07T02:38:58;8.63;;;3.97;;
5646;SDS011;2845;48.626;9.362;2023-12-07T02:41:35;6.73;;;3.30;;
5646;SDS011;2845;48.626;9.362;2023-12-07T02:44:12;9.73;;;3.47;;
5646;SDS011;2845;48.626;9.362;2023-12-07T02:46:46;8.50;;;4.07;;
5646;SDS011;2845;48.626;9.362;2023-12-07T02:49:20;9.03;;;3.57;;
5646;SDS011;2845;48.626;9.362;2023-12-07T02:51:54;9.43;;;4.10;;
5646;SDS011;2845;48.626;9.362;2023-12-07T02:54:28;8.20;;;4.03;;
5646;SDS011;2845;48.626;9.362;2023-12-07T02:57:03;9.50;;;3.83;;
5646;SDS011;2845;48.626;9.362;2023-12-07T02:59:39;7.43;;;3.37;;
5646;SDS011;2845;48.626;9.362;2023-12-07T03:02:13;6.60;;;3.60;;
5646;SDS011;2845;48.626;9.362;2023-12-07T03:04:47;8.83;;;3.90;;
5646;SDS011;2845;48.626;9.362;2023-12-07T03:07:21;6.97;;;3.37;;
5646;SDS011;2845;48.626;9.362;2023-12-07T03:09:55;6.93;;;3.00;;
5646;SDS011;2845;48.626;9.362;2023-12-07T03:12:29;8.77;;;4.07;;
5646;SDS011;2845;48.626;9.362;2023-12-07T03:15:06;6.50;;;3.40;;
5646;SDS011;2845;48.626;9.362;2023-12-07T03:17:42;8.70;;;3.67;;
5646;SDS011;2845;48.626;9.362;2023-12-07T03:20:16;8.40;;;3.97;;
5646;SDS011;2845;48.626;9.362;2023-12-07T03:22:50;9.20;;;4.60;;
5646;SDS011;2845;48.626;9.362;2023-12-07T03:25:25;9.93;;;4.80;;
5646;SDS011;2845;48.626;9.362;2023-12-07T03:27:59;9.10;;;4.33;;
5646;SDS011;2845;48.626;9.362;2023-12-07T03:30:34;9.07;;;3.67;;
5646;SDS011;2845;48.626;9.362;2023-12-07T03:33:08;9.40;;;4.03;;
5646;SDS011;2845;48.626;9.362;2023-12-07T03:35:43;9.23;;;4.10;;
5646;SDS011;2845;48.626;9.362;2023-12-07T03:38:17;7.93;;;3.90;;
5646;SDS011;2845;48.626;9.362;2023-12-07T03:40:51;9.13;;;4.23;;
5646;SDS011;2845;48.626;9.362;2023-12-07T03:43:25;9.00;;;4.17;;
5646;SDS011;2845;48.626;9.362;2023-12-07T03:46:01;7.63;;;3.77;;
5646;SDS011;2845;48.626;9.362;2023-12-07T03:48:38;7.17;;;3.87;;
5646;SDS011;2845;48.626;9.362;2023-12-07T03:51:13;7.80;;;3.50;;
5646;SDS011;2845;48.626;9.362;2023-12-07T03:53:49;7.93;;;3.57;;
5646;SDS011;2845;48.626;9.362;2023-12-07T03:56:26;8.87;;;3.53;;
5646;SDS011;2845;48.626;9.362;2023-12-07T03:59:01;8.03;;;3.90;;
5646;SDS011;2845;48.626;9.362;2023-12-07T04:01:37;8.47;;;3.13;;
5646;SDS011;2845;48.626;9.362;2023-12-07T04:04:11;7.93;;;3.50;;
5646;SDS011;2845;48.626;9.362;2023-12-07T04:06:45;9.00;;;3.70;;
5646;SDS011;2845;48.626;9.362;2023-12-07T04:09:20;6.97;;;3.43;;
5646;SDS011;2845;48.626;9.362;2023-12-07T04:11:54;7.17;;;3.93;;
5646;SDS011;2845;48.626;9.362;2023-12-07T04:14:28;7.57;;;3.33;;
5646;SDS011;2845;48.626;9.362;2023-12-07T04:17:04;6.30;;;3.40;;
5646;SDS011;2845;48.626;9.362;2023-12-07T04:19:38;6.70;;;3.30;;
5646;SDS011;2845;48.626;9.362;2023-12-07T04:22:12;10.97;;;3.57;;
5646;SDS011;2845;48.626;9.362;2023-12-07T04:24:46;7.67;;;3.27;;
5646;SDS011;2845;48.626;9.362;2023-12-07T04:27:20;7.83;;;3.30;;
5646;SDS011;2845;48.626;9.362;2023-12-07T04:29:54;8.00;;;3.23;;
5646;SDS011;2845;48.626;9.362;2023-12-07T04:32:30;8.13;;;3.33;;
5646;SDS011;2845;48.626;9.362;2023-12-07T04:35:05;5.67;;;2.77;;
5646;SDS011;2845;48.626;9.362;2023-12-07T04:37:41;6.20;;;3.10;;
5646;SDS011;2845;48.626;9.362;2023-12-07T04:40:15;7.20;;;3.20;;
5646;SDS011;2845;48.626;9.362;2023-12-07T04:42:49;5.67;;;2.80;;
5646;SDS011;2845;48.626;9.362;2023-12-07T04:45:23;7.63;;;3.27;;
5646;SDS011;2845;48.626;9.362;2023-12-07T04:47:59;9.30;;;3.53;;
5646;SDS011;2845;48.626;9.362;2023-12-07T04:50:33;6.73;;;2.73;;
5646;SDS011;2845;48.626;9.362;2023-12-07T04:53:07;10.17;;;3.67;;
5646;SDS011;2845;48.626;9.362;2023-12-07T04:55:41;6.27;;;3.00;;
5646;SDS011;2845;48.626;9.362;2023-12-07T04:58:19;7.87;;;3.23;;
5646;SDS011;2845;48.626;9.362;2023-12-07T05:00:53;8.97;;;3.47;;
5646;SDS011;2845;48.626;9.362;2023-12-07T05:03:29;7.33;;;3.20;;
5646;SDS011;2845;48.626;9.362;2023-12-07T05:06:03;7.20;;;2.63;;
5646;SDS011;2845;48.626;9.362;2023-12-07T05:08:39;7.83;;;3.37;;
5646;SDS011;2845;48.626;9.362;2023-12-07T05:11:13;8.23;;;3.63;;
5646;SDS011;2845;48.626;9.362;2023-12-07T05:13:47;7.93;;;3.10;;
5646;SDS011;2845;48.626;9.362;2023-12-07T05:16:22;8.80;;;3.67;;
5646;SDS011;2845;48.626;9.362;2023-12-07T05:18:57;7.03;;;3.27;;
5646;SDS011;2845;48.626;9.362;2023-12-07T05:21:32;5.60;;;2.93;;
5646;SDS011;2845;48.626;9.362;2023-12-07T05:24:06;7.07;;;2.80;;
5646;SDS011;2845;48.626;9.362;2023-12-07T05:26:40;7.30;;;3.27;;
5646;SDS011;2845;48.626;9.362;2023-12-07T05:29:15;5.60;;;2.90;;
5646;SDS011;2845;48.626;9.362;2023-12-07T05:31:49;5.43;;;2.73;;
5646;SDS011;2845;48.626;9.362;2023-12-07T05:34:24;4.63;;;2.40;;
5646;SDS011;2845;48.626;9.362;2023-12-07T05:36:59;5.30;;;2.77;;
5646;SDS011;2845;48.626;9.362;2023-12-07T05:39:33;7.83;;;3.00;;
5646;SDS011;2845;48.626;9.362;2023-12-07T05:42:08;5.27;;;2.50;;
5646;SDS011;2845;48.626;9.362;2023-12-07T05:44:42;5.90;;;2.30;;
5646;SDS011;2845;48.626;9.362;2023-12-07T05:47:16;5.87;;;2.70;;
5646;SDS011;2845;48.626;9.362;2023-12-07T05:49:51;7.53;;;2.67;;
5646;SDS011;2845;48.626;9.362;2023-12-07T05:52:25;6.67;;;2.70;;
5646;SDS011;2845;48.626;9.362;2023-12-07T05:55:00;6.97;;;2.37;;
5646;SDS011;2845;48.626;9.362;2023-12-07T05:57:35;5.37;;;2.30;;
5646;SDS011;2845;48.626;9.362;2023-12-07T06:00:09;6.23;;;2.87;;
5646;SDS011;2845;48.626;9.362;2023-12-07T06:02:45;5.53;;;2.50;;
5646;SDS011;2845;48.626;9.362;2023-12-07T06:05:20;6.30;;;2.73;;
5646;SDS011;2845;48.626;9.362;2023-12-07T06:07:54;7.17;;;2.67;;
5646;SDS011;2845;48.626;9.362;2023-12-07T06:10:28;4.77;;;2.17;;
5646;SDS011;2845;48.626;9.362;2023-12-07T06:13:02;8.03;;;2.90;;
5646;SDS011;2845;48.626;9.362;2023-12-07T06:15:37;5.97;;;2.10;;
5646;SDS011;2845;48.626;9.362;2023-12-07T06:18:12;7.57;;;2.30;;
5646;SDS011;2845;48.626;9.362;2023-12-07T06:20:49;5.53;;;2.27;;
5646;SDS011;2845;48.626;9.362;2023-12-07T06:23:23;4.67;;;2.27;;
5646;SDS011;2845;48.626;9.362;2023-12-07T06:25:57;5.47;;;2.87;;
5646;SDS011;2845;48.626;9.362;2023-12-07T06:28:31;6.27;;;2.67;;
5646;SDS011;2845;48.626;9.362;2023-12-07T06:31:06;7.33;;;3.03;;
5646;SDS011;2845;48.626;9.362;2023-12-07T06:33:41;5.37;;;2.70;;
5646;SDS011;2845;48.626;9.362;2023-12-07T06:36:20;5.70;;;2.50;;
5646;SDS011;2845;48.626;9.362;2023-12-07T06:38:58;6.17;;;2.50;;
5646;SDS011;2845;48.626;9.362;2023-12-07T06:41:32;7.13;;;2.83;;
5646;SDS011;2845;48.626;9.362;2023-12-07T06:44:06;5.93;;;2.33;;
5646;SDS011;2845;48.626;9.362;2023-12-07T06:46:41;5.93;;;2.53;;
5646;SDS011;2845;48.626;9.362;2023-12-07T06:49:15;7.07;;;2.77;;
5646;SDS011;2845;48.626;9.362;2023-12-07T06:51:51;6.53;;;2.63;;
5646;SDS011;2845;48.626;9.362;2023-12-07T06:54:25;8.03;;;3.57;;
5646;SDS011;2845;48.626;9.362;2023-12-07T06:56:59;6.80;;;2.93;;
5646;SDS011;2845;48.626;9.362;2023-12-07T06:59:33;7.50;;;3.60;;
5646;SDS011;2845;48.626;9.362;2023-12-07T07:02:07;8.97;;;3.43;;
5646;SDS011;2845;48.626;9.362;2023-12-07T07:04:42;7.37;;;3.93;;
5646;SDS011;2845;48.626;9.362;2023-12-07T07:07:18;8.93;;;3.57;;
5646;SDS011;2845;48.626;9.362;2023-12-07T07:09:52;7.57;;;2.97;;
5646;SDS011;2845;48.626;9.362;2023-12-07T07:12:26;8.00;;;3.27;;
5646;SDS011;2845;48.626;9.362;2023-12-07T07:15:02;6.47;;;2.90;;
5646;SDS011;2845;48.626;9.362;2023-12-07T07:17:37;6.47;;;2.90;;
5646;SDS011;2845;48.626;9.362;2023-12-07T07:20:11;6.33;;;3.03;;
5646;SDS011;2845;48.626;9.362;2023-12-07T07:22:47;7.00;;;2.80;;
5646;SDS011;2845;48.626;9.362;2023-12-07T07:25:21;7.20;;;2.73;;
5646;SDS011;2845;48.626;9.362;2023-12-07T07:27:55;6.33;;;2.97;;
5646;SDS011;2845;48.626;9.362;2023-12-07T07:30:29;7.50;;;2.70;;
5646;SDS011;2845;48.626;9.362;2023-12-07T07:33:03;5.80;;;2.53;;
5646;SDS011;2845;48.626;9.362;2023-12-07T07:35:38;5.20;;;2.53;;
5646;SDS011;2845;48.626;9.362;2023-12-07T07:38:13;7.17;;;2.80;;
5646;SDS011;2845;48.626;9.362;2023-12-07T07:40:47;7.67;;;3.43;;
5646;SDS011;2845;48.626;9.362;2023-12-07T07:43:22;5.93;;;2.43;;
5646;SDS011;2845;48.626;9.362;2023-12-07T07:45:56;4.77;;;2.17;;
5646;SDS011;2845;48.626;9.362;2023-12-07T07:48:30;8.00;;;2.90;;
5646;SDS011;2845;48.626;9.362;2023-12-07T07:51:04;5.00;;;2.57;;
5646;SDS011;2845;48.626;9.362;2023-12-07T07:53:40;6.87;;;2.67;;
5646;SDS011;2845;48.626;9.362;2023-12-07T07:56:14;5.33;;;2.67;;
5646;SDS011;2845;48.626;9.362;2023-12-07T07:58:48;5.77;;;2.77;;
5646;SDS011;2845;48.626;9.362;2023-12-07T08:01:22;6.77;;;2.90;;
5646;SDS011;2845;48.626;9.362;2023-12-07T08:03:56;4.73;;;2.33;;
5646;SDS011;2845;48.626;9.362;2023-12-07T08:06:30;5.03;;;2.50;;
5646;SDS011;2845;48.626;9.362;2023-12-07T08:09:10;7.50;;;3.13;;
5646;SDS011;2845;48.626;9.362;2023-12-07T08:11:44;7.93;;;3.50;;
5646;SDS011;2845;48.626;9.362;2023-12-07T08:14:18;7.87;;;3.47;;
5646;SDS011;2845;48.626;9.362;2023-12-07T08:16:52;7.27;;;3.07;;
5646;SDS011;2845;48.626;9.362;2023-12-07T08:19:26;6.60;;;3.17;;
5646;SDS011;2845;48.626;9.362;2023-12-07T08:22:00;8.67;;;3.10;;
5646;SDS011;2845;48.626;9.362;2023-12-07T08:24:38;7.63;;;3.90;;
5646;SDS011;2845;48.626;9.362;2023-12-07T08:27:12;9.73;;;3.73;;
5646;SDS011;2845;48.626;9.362;2023-12-07T08:29:46;8.07;;;3.67;;
5646;SDS011;2845;48.626;9.362;2023-12-07T08:32:21;7.10;;;3.67;;
5646;SDS011;2845;48.626;9.362;2023-12-07T08:34:58;7.17;;;3.37;;
5646;SDS011;2845;48.626;9.362;2023-12-07T08:37:32;8.23;;;4.03;;
5646;SDS011;2845;48.626;9.362;2023-12-07T08:40:08;9.27;;;3.80;;
5646;SDS011;2845;48.626;9.362;2023-12-07T08:42:47;8.63;;;4.13;;
5646;SDS011;2845;48.626;9.362;2023-12-07T08:45:24;8.50;;;3.87;;
5646;SDS011;2845;48.626;9.362;2023-12-07T08:47:58;8.20;;;4.20;;
5646;SDS011;2845;48.626;9.362;2023-12-07T08:50:32;9.50;;;5.17;;
5646;SDS011;2845;48.626;9.362;2023-12-07T08:53:06;11.53;;;5.23;;
5646;SDS011;2845;48.626;9.362;2023-12-07T08:55:42;9.80;;;4.50;;
5646;SDS011;2845;48.626;9.362;2023-12-07T08:58:16;13.17;;;6.03;;
5646;SDS011;2845;48.626;9.362;2023-12-07T09:00:50;18.33;;;6.37;;
5646;SDS011;2845;48.626;9.362;2023-12-07T09:03:24;11.73;;;5.77;;
5646;SDS011;2845;48.626;9.362;2023-12-07T09:06:04;11.67;;;5.53;;
5646;SDS011;2845;48.626;9.362;2023-12-07T09:08:39;9.90;;;4.93;;
5646;SDS011;2845;48.626;9.362;2023-12-07T09:11:14;8.93;;;5.10;;
5646;SDS011;2845;48.626;9.362;2023-12-07T09:13:49;16.83;;;5.70;;
5646;SDS011;2845;48.626;9.362;2023-12-07T09:16:23;13.43;;;5.43;;
5646;SDS011;2845;48.626;9.362;2023-12-07T09:18:58;12.40;;;6.17;;
5646;SDS011;2845;48.626;9.362;2023-12-07T09:21:32;10.47;;;4.87;;
5646;SDS011;2845;48.626;9.362;2023-12-07T09:24:06;9.13;;;4.47;;
5646;SDS011;2845;48.626;9.362;2023-12-07T09:26:42;9.60;;;4.67;;
5646;SDS011;2845;48.626;9.362;2023-12-07T09:29:16;9.90;;;4.77;;
5646;SDS011;2845;48.626;9.362;2023-12-07T09:31:50;11.07;;;5.23;;
5646;SDS011;2845;48.626;9.362;2023-12-07T09:34:24;13.77;;;5.57;;
5646;SDS011;2845;48.626;9.362;2023-12-07T09:37:07;10.37;;;4.47;;
5646;SDS011;2845;48.626;9.362;2023-12-07T09:39:42;10.67;;;5.17;;
5646;SDS011;2845;48.626;9.362;2023-12-07T09:42:17;10.57;;;5.43;;
5646;SDS011;2845;48.626;9.362;2023-12-07T09:44:54;10.47;;;4.90;;
5646;SDS011;2845;48.626;9.362;2023-12-07T09:47:28;9.70;;;4.13;;
5646;SDS011;2845;48.626;9.362;2023-12-07T09:50:09;9.10;;;4.30;;
5646;SDS011;2845;48.626;9.362;2023-12-07T09:52:44;6.93;;;4.10;;
5646;SDS011;2845;48.626;9.362;2023-12-07T09:55:35;8.37;;;4.23;;
5646;SDS011;2845;48.626;9.362;2023-12-07T09:58:12;8.43;;;4.20;;
5646;SDS011;2845;48.626;9.362;2023-12-07T10:00:48;8.33;;;3.67;;
5646;SDS011;2845;48.626;9.362;2023-12-07T10:03:22;8.80;;;4.50;;
5646;SDS011;2845;48.626;9.362;2023-12-07T10:05:57;7.90;;;3.87;;
5646;SDS011;2845;48.626;9.362;2023-12-07T10:08:33;8.47;;;4.43;;
5646;SDS011;2845;48.626;9.362;2023-12-07T10:11:09;10.37;;;4.87;;
5646;SDS011;2845;48.626;9.362;2023-12-07T10:13:46;8.43;;;3.80;;
5646;SDS011;2845;48.626;9.362;2023-12-07T10:16:21;8.60;;;4.87;;
5646;SDS011;2845;48.626;9.362;2023-12-07T10:18:55;10.43;;;4.60;;
5646;SDS011;2845;48.626;9.362;2023-12-07T10:21:32;7.53;;;3.70;;
5646;SDS011;2845;48.626;9.362;2023-12-07T10:24:06;7.70;;;3.97;;
5646;SDS011;2845;48.626;9.362;2023-12-07T10:26:40;9.23;;;4.00;;
5646;SDS011;2845;48.626;9.362;2023-12-07T10:29:18;8.67;;;4.10;;
5646;SDS011;2845;48.626;9.362;2023-12-07T10:32:04;7.33;;;3.47;;
5646;SDS011;2845;48.626;9.362;2023-12-07T10:34:39;8.17;;;3.40;;
5646;SDS011;2845;48.626;9.362;2023-12-07T10:37:13;10.77;;;4.83;;
5646;SDS011;2845;48.626;9.362;2023-12-07T10:39:48;7.70;;;3.60;;
5646;SDS011;2845;48.626;9.362;2023-12-07T10:42:22;7.57;;;3.30;;
5646;SDS011;2845;48.626;9.362;2023-12-07T10:45:00;6.57;;;3.00;;
5646;SDS011;2845;48.626;9.362;2023-12-07T10:47:40;6.93;;;3.53;;
5646;SDS011;2845;48.626;9.362;2023-12-07T10:50:17;6.97;;;3.70;;
5646;SDS011;2845;48.626;9.362;2023-12-07T10:52:57;6.90;;;3.50;;
5646;SDS011;2845;48.626;9.362;2023-12-07T10:55:40;7.97;;;3.30;;
5646;SDS011;2845;48.626;9.362;2023-12-07T10:58:19;7.40;;;3.37;;
5646;SDS011;2845;48.626;9.362;2023-12-07T11:00:59;8.60;;;3.33;;
5646;SDS011;2845;48.626;9.362;2023-12-07T11:03:34;7.40;;;3.90;;
5646;SDS011;2845;48.626;9.362;2023-12-07T11:06:09;9.50;;;4.13;;
5646;SDS011;2845;48.626;9.362;2023-12-07T11:08:44;7.50;;;3.93;;
5646;SDS011;2845;48.626;9.362;2023-12-07T11:11:24;7.40;;;3.40;;
5646;SDS011;2845;48.626;9.362;2023-12-07T11:14:03;6.73;;;3.53;;
5646;SDS011;2845;48.626;9.362;2023-12-07T11:16:41;5.80;;;3.13;;
5646;SDS011;2845;48.626;9.362;2023-12-07T11:22:20;7.87;;;3.40;;
5646;SDS011;2845;48.626;9.362;2023-12-07T11:24:57;7.90;;;3.77;;
5646;SDS011;2845;48.626;9.362;2023-12-07T11:27:33;8.15;;;3.75;;
5646;SDS011;2845;48.626;9.362;2023-12-07T11:30:08;6.35;;;3.15;;
5646;SDS011;2845;48.626;9.362;2023-12-07T11:32:45;6.57;;;3.00;;
5646;SDS011;2845;48.626;9.362;2023-12-07T11:35:19;7.17;;;3.73;;
5646;SDS011;2845;48.626;9.362;2023-12-07T11:38:01;8.67;;;3.40;;
5646;SDS011;2845;48.626;9.362;2023-12-07T11:40:41;6.68;;;3.33;;
5646;SDS011;2845;48.626;9.362;2023-12-07T11:43:19;6.17;;;3.03;;
5646;SDS011;2845;48.626;9.362;2023-12-07T11:46:12;8.70;;;3.58;;
5646;SDS011;2845;48.626;9.362;2023-12-07T11:48:49;7.55;;;3.38;;
5646;SDS011;2845;48.626;9.362;2023-12-07T11:51:23;6.65;;;3.40;;
5646;SDS011;2845;48.626;9.362;2023-12-07T11:53:57;6.45;;;3.25;;
5646;SDS011;2845;48.626;9.362;2023-12-07T11:56:32;8.68;;;3.03;;
5646;SDS011;2845;48.626;9.362;2023-12-07T11:59:06;7.63;;;3.28;;
5646;SDS011;2845;48.626;9.362;2023-12-07T12:01:46;5.70;;;3.30;;
5646;SDS011;2845;48.626;9.362;2023-12-07T12:04:22;7.03;;;3.38;;
5646;SDS011;2845;48.626;9.362;2023-12-07T12:06:56;6.07;;;3.45;;
5646;SDS011;2845;48.626;9.362;2023-12-07T12:09:30;6.32;;;3.40;;
5646;SDS011;2845;48.626;9.362;2023-12-07T12:12:06;7.22;;;3.03;;
5646;SDS011;2845;48.626;9.362;2023-12-07T12:14:40;6.50;;;2.92;;
5646;SDS011;2845;48.626;9.362;2023-12-07T12:17:15;5.25;;;2.67;;
5646;SDS011;2845;48.626;9.362;2023-12-07T12:19:51;6.00;;;2.35;;
5646;SDS011;2845;48.626;9.362;2023-12-07T12:22:27;5.88;;;1.95;;
5646;SDS011;2845;48.626;9.362;2023-12-07T12:25:01;2.90;;;1.20;;
5646;SDS011;2845;48.626;9.362;2023-12-07T12:27:37;2.28;;;1.02;;
5646;SDS011;2845;48.626;9.362;2023-12-07T12:30:12;2.22;;;0.73;;
5646;SDS011;2845;48.626;9.362;2023-12-07T12:32:46;3.72;;;0.68;;
5646;SDS011;2845;48.626;9.362;2023-12-07T12:35:22;2.88;;;0.65;;
5646;SDS011;2845;48.626;9.362;2023-12-07T12:37:57;0.90;;;0.50;;
5646;SDS011;2845;48.626;9.362;2023-12-07T12:40:31;0.70;;;0.40;;
5646;SDS011;2845;48.626;9.362;2023-12-07T12:43:05;1.55;;;0.50;;
5646;SDS011;2845;48.626;9.362;2023-12-07T12:45:40;1.83;;;0.60;;
5646;SDS011;2845;48.626;9.362;2023-12-07T12:48:14;1.30;;;0.60;;
5646;SDS011;2845;48.626;9.362;2023-12-07T12:50:50;3.30;;;0.45;;
5646;SDS011;2845;48.626;9.362;2023-12-07T12:53:24;0.57;;;0.20;;
5646;SDS011;2845;48.626;9.362;2023-12-07T12:56:00;2.30;;;0.50;;
5646;SDS011;2845;48.626;9.362;2023-12-07T12:58:35;1.63;;;0.50;;
5646;SDS011;2845;48.626;9.362;2023-12-07T13:01:09;2.95;;;0.52;;
5646;SDS011;2845;48.626;9.362;2023-12-07T13:03:43;1.48;;;0.50;;
5646;SDS011;2845;48.626;9.362;2023-12-07T13:06:20;1.00;;;0.50;;
5646;SDS011;2845;48.626;9.362;2023-12-07T13:08:54;1.25;;;0.55;;
5646;SDS011;2845;48.626;9.362;2023-12-07T13:11:29;2.33;;;0.50;;
5646;SDS011;2845;48.626;9.362;2023-12-07T13:14:04;1.17;;;0.70;;
5646;SDS011;2845;48.626;9.362;2023-12-07T13:16:40;0.93;;;0.40;;
5646;SDS011;2845;48.626;9.362;2023-12-07T13:19:15;0.88;;;0.40;;
5646;SDS011;2845;48.626;9.362;2023-12-07T13:21:50;0.50;;;0.40;;
5646;SDS011;2845;48.626;9.362;2023-12-07T13:24:25;0.80;;;0.22;;
5646;SDS011;2845;48.626;9.362;2023-12-07T13:26:59;0.75;;;0.22;;
5646;SDS011;2845;48.626;9.362;2023-12-07T13:29:34;0.80;;;0.40;;
5646;SDS011;2845;48.626;9.362;2023-12-07T13:32:08;1.00;;;0.43;;
5646;SDS011;2845;48.626;9.362;2023-12-07T13:34:44;2.10;;;0.40;;
5646;SDS011;2845;48.626;9.362;2023-12-07T13:37:20;2.53;;;0.38;;
5646;SDS011;2845;48.626;9.362;2023-12-07T13:39:55;1.15;;;0.45;;
5646;SDS011;2845;48.626;9.362;2023-12-07T13:42:30;1.27;;;0.40;;
5646;SDS011;2845;48.626;9.362;2023-12-07T13:45:05;2.85;;;0.95;;
5646;SDS011;2845;48.626;9.362;2023-12-07T13:47:40;3.55;;;0.85;;
5646;SDS011;2845;48.626;9.362;2023-12-07T13:50:14;2.40;;;0.70;;
5646;SDS011;2845;48.626;9.362;2023-12-07T13:52:50;2.60;;;0.70;;
5646;SDS011;2845;48.626;9.362;2023-12-07T13:55:24;1.88;;;0.77;;
5646;SDS011;2845;48.626;9.362;2023-12-07T13:57:58;1.92;;;0.70;;
5646;SDS011;2845;48.626;9.362;2023-12-07T14:00:32;1.52;;;0.68;;
5646;SDS011;2845;48.626;9.362;2023-12-07T14:03:07;1.48;;;0.50;;
5646;SDS011;2845;48.626;9.362;2023-12-07T14:05:42;1.15;;;0.50;;
5646;SDS011;2845;48.626;9.362;2023-12-07T14:08:19;1.20;;;0.40;;
5646;SDS011;2845;48.626;9.362;2023-12-07T14:10:53;1.65;;;0.70;;
5646;SDS011;2845;48.626;9.362;2023-12-07T14:13:27;1.48;;;0.50;;
5646;SDS011;2845;48.626;9.362;2023-12-07T14:16:01;1.25;;;0.60;;
5646;SDS011;2845;48.626;9.362;2023-12-07T14:18:49;1.20;;;0.60;;
5646;SDS011;2845;48.626;9.362;2023-12-07T14:21:39;1.65;;;0.80;;
5646;SDS011;2845;48.626;9.362;2023-12-07T14:24:28;1.25;;;0.55;;
5646;SDS011;2845;48.626;9.362;2023-12-07T14:27:02;1.40;;;0.60;;
5646;SDS011;2845;48.626;9.362;2023-12-07T14:29:38;1.20;;;0.60;;
5646;SDS011;2845;48.626;9.362;2023-12-07T14:32:12;2.47;;;0.52;;
5646;SDS011;2845;48.626;9.362;2023-12-07T14:34:46;1.17;;;0.52;;
5646;SDS011;2845;48.626;9.362;2023-12-07T14:37:21;1.90;;;0.70;;
5646;SDS011;2845;48.626;9.362;2023-12-07T14:39:58;1.25;;;0.50;;
5646;SDS011;2845;48.626;9.362;2023-12-07T14:42:32;1.63;;;0.50;;
5646;SDS011;2845;48.626;9.362;2023-12-07T14:45:06;1.65;;;0.70;;
5646;SDS011;2845;48.626;9.362;2023-12-07T14:47:42;3.47;;;0.88;;
5646;SDS011;2845;48.626;9.362;2023-12-07T14:50:18;1.58;;;0.68;;
5646;SDS011;2845;48.626;9.362;2023-12-07T14:52:53;4.07;;;0.85;;
5646;SDS011;2845;48.626;9.362;2023-12-07T14:55:28;2.22;;;0.70;;
5646;SDS011;2845;48.626;9.362;2023-12-07T14:58:02;2.33;;;0.90;;
5646;SDS011;2845;48.626;9.362;2023-12-07T15:00:36;1.52;;;0.80;;
5646;SDS011;2845;48.626;9.362;2023-12-07T15:03:13;1.45;;;0.75;;
5646;SDS011;2845;48.626;9.362;2023-12-07T15:05:48;3.20;;;1.20;;
5646;SDS011;2845;48.626;9.362;2023-12-07T15:08:22;1.65;;;0.77;;
5646;SDS011;2845;48.626;9.362;2023-12-07T15:10:57;2.28;;;1.17;;
5646;SDS011;2845;48.626;9.362;2023-12-07T15:13:31;3.05;;;1.08;;
5646;SDS011;2845;48.626;9.362;2023-12-07T15:16:06;2.53;;;0.93;;
5646;SDS011;2845;48.626;9.362;2023-12-07T15:18:41;1.90;;;1.08;;
5646;SDS011;2845;48.626;9.362;2023-12-07T15:21:17;2.22;;;1.15;;
5646;SDS011;2845;48.626;9.362;2023-12-07T15:23:52;3.17;;;1.45;;
5646;SDS011;2845;48.626;9.362;2023-12-07T15:26:27;3.30;;;1.20;;
5646;SDS011;2845;48.626;9.362;2023-12-07T15:29:02;2.53;;;0.70;;
5646;SDS011;2845;48.626;9.362;2023-12-07T15:31:37;2.33;;;1.00;;
5646;SDS011;2845;48.626;9.362;2023-12-07T15:34:11;2.28;;;0.70;;
5646;SDS011;2845;48.626;9.362;2023-12-07T15:37:00;3.00;;;1.00;;
5646;SDS011;2845;48.626;9.362;2023-12-07T15:39:34;2.87;;;1.20;;
5646;SDS011;2845;48.626;9.362;2023-12-07T15:42:10;4.55;;;1.20;;
5646;SDS011;2845;48.626;9.362;2023-12-07T15:44:44;4.53;;;1.67;;
5646;SDS011;2845;48.626;9.362;2023-12-07T15:47:18;2.93;;;1.27;;
5646;SDS011;2845;48.626;9.362;2023-12-07T15:49:52;2.88;;;1.20;;
5646;SDS011;2845;48.626;9.362;2023-12-07T15:52:26;4.10;;;1.40;;
5646;SDS011;2845;48.626;9.362;2023-12-07T15:55:01;3.70;;;1.60;;
5646;SDS011;2845;48.626;9.362;2023-12-07T15:57:36;2.65;;;1.30;;
5646;SDS011;2845;48.626;9.362;2023-12-07T16:00:11;5.73;;;2.03;;
5646;SDS011;2845;48.626;9.362;2023-12-07T16:02:46;4.57;;;2.13;;
5646;SDS011;2845;48.626;9.362;2023-12-07T16:05:20;6.05;;;2.15;;
5646;SDS011;2845;48.626;9.362;2023-12-07T16:07:55;4.57;;;1.90;;